Etowah, Arkansas
Current Conditions -  °F | °C
As of 9:53 PM on Thursday 18 Dec 2014 (Local Time) from KJBR Reporting Station
Overcast Overcast  
Wind Chill: 34°   Ceiling: 3900
Heat Index: 40°   Visibility: 10mi
Dew Point: 37°   Wind: 8mph
Humidity: 89%   Direction: 50°NE
Pressure: 30.25"   Gusts: NA
Location:  35.73°N, 90.23°W
Report Text: KJBR 190353Z AUTO 05007KT 10SM OVC039 04/03 A3025 RMK AO2 SLP245 T00440028
Loading
Personal Weather Stations






























Interactive Weather Map New forecast layout! Learn more

10-Day Weather Forecast

Advertisements
Track Severe Weather on mobile